createdAt,value
2019-05-20T06:00:29.838Z,999.35
2019-05-20T06:01:29.447Z,999.35
2019-05-20T06:02:29.525Z,999.38
2019-05-20T06:03:29.471Z,999.41
2019-05-20T06:04:29.394Z,999.43
2019-05-20T06:05:31.596Z,999.39
2019-05-20T06:06:29.394Z,999.41
2019-05-20T06:07:29.394Z,999.42
2019-05-20T06:08:29.336Z,999.50
2019-05-20T06:09:29.325Z,999.48
2019-05-20T06:10:29.327Z,999.47
2019-05-20T06:11:29.353Z,999.51
2019-05-20T06:12:29.295Z,999.48
2019-05-20T06:13:29.280Z,999.48
2019-05-20T06:14:29.271Z,999.50
2019-05-20T06:15:29.291Z,999.54
2019-05-20T06:16:36.526Z,999.47
2019-05-20T06:17:30.241Z,999.53
2019-05-20T06:18:29.234Z,999.49
2019-05-20T06:19:29.226Z,999.54
2019-05-20T06:20:29.269Z,999.62
2019-05-20T06:21:29.212Z,999.59
2019-05-20T06:22:29.194Z,999.62
2019-05-20T06:23:29.179Z,999.64
2019-05-20T06:24:30.805Z,999.63
2019-05-20T06:25:29.173Z,999.62
2019-05-20T06:26:29.142Z,999.66
2019-05-20T06:27:29.160Z,999.67
2019-05-20T06:28:29.136Z,999.67
2019-05-20T06:29:29.112Z,999.61
2019-05-20T06:30:29.132Z,999.67
2019-05-20T06:31:29.088Z,999.63
2019-05-20T06:32:29.077Z,999.66
2019-05-20T06:33:29.105Z,999.68
2019-05-20T06:34:29.092Z,999.62
2019-05-20T06:35:29.048Z,999.64
2019-05-20T06:36:29.070Z,999.67
2019-05-20T06:37:29.056Z,999.74
2019-05-20T06:38:29.022Z,999.75
2019-05-20T06:39:29.021Z,999.74
2019-05-20T06:40:29.017Z,999.76
2019-05-20T06:41:28.978Z,999.75
2019-05-20T06:42:28.996Z,999.75
2019-05-20T06:43:28.958Z,999.78
2019-05-20T06:44:28.979Z,999.82
2019-05-20T06:45:28.935Z,999.85
2019-05-20T06:46:28.974Z,999.85
2019-05-20T06:47:28.914Z,999.84
2019-05-20T06:48:28.907Z,999.87
2019-05-20T06:49:28.922Z,999.98
2019-05-20T06:50:29.734Z,999.97
2019-05-20T06:51:28.876Z,1000.04
2019-05-20T06:52:35.775Z,1000.02
2019-05-20T06:53:33.294Z,1000.01
2019-05-20T06:54:28.838Z,1000.00
2019-05-20T06:55:28.835Z,1000.00
2019-05-20T06:56:28.815Z,1000.01
2019-05-20T06:57:28.857Z,999.95
2019-05-20T06:58:28.818Z,1000.01
2019-05-20T06:59:28.798Z,999.95
2019-05-20T07:00:28.773Z,999.95
2019-05-20T07:01:28.790Z,999.91
2019-05-20T07:02:28.777Z,999.89
2019-05-20T07:03:28.741Z,999.88
2019-05-20T07:04:28.774Z,999.86
2019-05-20T07:05:28.725Z,999.84
2019-05-20T07:06:44.695Z,999.84
2019-05-20T07:07:29.694Z,999.89
2019-05-20T07:08:28.736Z,999.83
2019-05-20T07:09:28.672Z,999.88
2019-05-20T07:10:28.701Z,999.95
2019-05-20T07:11:28.651Z,999.90
2019-05-20T07:12:40.514Z,999.91
2019-05-20T07:13:29.671Z,999.94
2019-05-20T07:14:28.621Z,999.98
2019-05-20T07:15:28.653Z,999.98
2019-05-20T07:16:28.600Z,999.99
2019-05-20T07:17:28.591Z,999.98
2019-05-20T07:18:28.609Z,1000.00
2019-05-20T07:19:28.614Z,999.99
2019-05-20T07:20:28.587Z,999.95
2019-05-20T07:21:28.548Z,1000.04
2019-05-20T07:22:28.588Z,1000.06
2019-05-20T07:23:28.533Z,999.99
2019-05-20T07:24:28.567Z,1000.01
2019-05-20T07:25:28.548Z,1000.05
2019-05-20T07:26:28.494Z,1000.02
2019-05-20T07:27:28.505Z,999.99
2019-05-20T07:28:28.553Z,1000.00
2019-05-20T07:29:28.460Z,1000.01
2019-05-20T07:30:28.481Z,999.97
2019-05-20T07:31:28.438Z,1000.01
2019-05-20T07:32:28.433Z,999.98
2019-05-20T07:33:28.448Z,1000.04
2019-05-20T07:34:28.402Z,1000.00
2019-05-20T07:35:30.974Z,999.97
2019-05-20T07:36:28.388Z,1000.00
2019-05-20T07:37:28.426Z,999.99
2019-05-20T07:38:28.389Z,1000.02
2019-05-20T07:39:28.354Z,999.97
2019-05-20T07:40:28.366Z,999.94
2019-05-20T07:41:28.332Z,999.99
2019-05-20T07:42:28.346Z,999.94
2019-05-20T07:43:28.312Z,999.92
2019-05-20T07:44:28.296Z,999.96
2019-05-20T07:45:28.318Z,999.98
2019-05-20T07:46:28.352Z,999.92
2019-05-20T07:47:28.266Z,999.93
2019-05-20T07:48:28.266Z,999.91
2019-05-20T07:49:28.242Z,999.94
2019-05-20T07:50:28.231Z,999.93
2019-05-20T07:51:28.299Z,999.96
2019-05-20T07:52:28.210Z,999.96
2019-05-20T07:53:28.221Z,999.96
2019-05-20T07:54:28.184Z,1000.00
2019-05-20T07:55:28.194Z,999.95
2019-05-20T07:56:28.208Z,1000.02
2019-05-20T07:57:28.187Z,1000.05
2019-05-20T07:58:28.143Z,1000.03
2019-05-20T07:59:28.140Z,1000.02
2019-05-20T08:00:28.150Z,1000.03
2019-05-20T08:01:28.119Z,1000.07
2019-05-20T08:02:28.142Z,1000.06
2019-05-20T08:03:28.120Z,1000.08
2019-05-20T08:04:28.181Z,1000.06
2019-05-20T08:05:28.100Z,1000.12
2019-05-20T08:06:28.080Z,1000.14
2019-05-20T08:07:49.954Z,1000.12
2019-05-20T08:08:29.068Z,1000.12
2019-05-20T08:09:28.211Z,1000.16
2019-05-20T08:10:28.015Z,1000.25
2019-05-20T08:11:28.010Z,1000.22
2019-05-20T08:12:28.033Z,1000.22
2019-05-20T08:13:28.031Z,1000.16
2019-05-20T08:14:28.013Z,1000.17
2019-05-20T08:15:27.964Z,1000.17
2019-05-20T08:16:27.950Z,1000.23
2019-05-20T08:17:27.969Z,1000.14
2019-05-20T08:18:27.931Z,1000.15
2019-05-20T08:19:27.919Z,1000.11
2019-05-20T08:20:27.922Z,1000.18
2019-05-20T08:21:27.951Z,1000.17
2019-05-20T08:22:27.890Z,1000.18
2019-05-20T08:23:27.927Z,1000.18
2019-05-20T08:24:27.921Z,1000.32
2019-05-20T08:25:27.851Z,1000.25
2019-05-20T08:26:27.893Z,1000.31
2019-05-20T08:27:27.858Z,1000.32
2019-05-20T08:28:27.861Z,1000.36
2019-05-20T08:29:27.818Z,1000.33
2019-05-20T08:30:27.806Z,1000.24
2019-05-20T08:31:27.828Z,1000.24
2019-05-20T08:32:27.974Z,1000.26
2019-05-20T08:33:28.049Z,1000.23
2019-05-20T08:34:27.757Z,1000.27
2019-05-20T08:35:27.776Z,1000.24
2019-05-20T08:36:27.773Z,1000.17
2019-05-20T08:37:44.368Z,1000.26
2019-05-20T08:38:28.723Z,1000.23
2019-05-20T08:39:27.724Z,1000.28
2019-05-20T08:40:27.691Z,1000.25
2019-05-20T08:41:27.753Z,1000.27
2019-05-20T08:42:27.672Z,1000.17
2019-05-20T08:43:27.657Z,1000.18
2019-05-20T08:44:27.735Z,1000.16
2019-05-20T08:45:27.639Z,1000.09
2019-05-20T08:46:27.633Z,1000.10
2019-05-20T08:47:27.638Z,1000.10
2019-05-20T08:48:27.604Z,1000.09
2019-05-20T08:49:27.670Z,1000.18
2019-05-20T08:50:27.640Z,1000.16
2019-05-20T08:51:27.567Z,1000.14
2019-05-20T08:52:27.572Z,1000.15
2019-05-20T08:53:27.715Z,1000.16
2019-05-20T08:54:27.581Z,1000.11
2019-05-20T08:55:27.543Z,1000.12
2019-05-20T08:56:27.515Z,1000.18
2019-05-20T08:57:27.509Z,1000.22
2019-05-20T08:58:27.499Z,1000.19
2019-05-20T08:59:27.509Z,1000.25
2019-05-20T09:00:27.613Z,1000.18
2019-05-20T09:01:27.538Z,1000.22
2019-05-20T09:02:27.460Z,1000.24
2019-05-20T09:03:30.379Z,1000.26
2019-05-20T09:04:27.462Z,1000.30
2019-05-20T09:05:28.570Z,1000.28
2019-05-20T09:06:27.420Z,1000.33
2019-05-20T09:07:27.439Z,1000.29
2019-05-20T09:08:27.431Z,1000.34
2019-05-20T09:09:27.783Z,1000.32
2019-05-20T09:10:27.365Z,1000.30
2019-05-20T09:11:27.355Z,1000.35
2019-05-20T09:12:27.392Z,1000.39
2019-05-20T09:13:27.334Z,1000.36
2019-05-20T09:14:27.375Z,1000.35
2019-05-20T09:15:27.400Z,1000.38
2019-05-20T09:16:27.311Z,1000.40
2019-05-20T09:17:27.349Z,1000.38
2019-05-20T09:18:27.285Z,1000.41
2019-05-20T09:19:27.276Z,1000.43
2019-05-20T09:20:27.303Z,1000.45
2019-05-20T09:21:27.249Z,1000.45
2019-05-20T09:22:27.245Z,1000.50
2019-05-20T09:23:27.276Z,1000.48
2019-05-20T09:24:27.256Z,1000.50
2019-05-20T09:25:27.230Z,1000.52
2019-05-20T09:26:27.207Z,1000.51
2019-05-20T09:27:27.186Z,1000.55
2019-05-20T09:28:27.184Z,1000.50
2019-05-20T09:29:27.161Z,1000.52
2019-05-20T09:30:27.177Z,1000.54
2019-05-20T09:31:27.145Z,1000.60
2019-05-20T09:32:27.154Z,1000.57
2019-05-20T09:33:27.125Z,1000.55
2019-05-20T09:34:27.108Z,1000.62
2019-05-20T09:35:27.163Z,1000.58
2019-05-20T09:36:27.092Z,1000.60
2019-05-20T09:37:27.076Z,1000.59
2019-05-20T09:38:27.084Z,1000.58
2019-05-20T09:39:27.071Z,1000.55
2019-05-20T09:40:27.249Z,1000.51
2019-05-20T09:41:27.041Z,1000.54
2019-05-20T09:42:27.028Z,1000.44
2019-05-20T09:43:27.021Z,1000.48
2019-05-20T09:44:27.004Z,1000.49
2019-05-20T09:45:27.296Z,1000.53
2019-05-20T09:46:26.979Z,1000.56
2019-05-20T09:47:34.549Z,1000.46
2019-05-20T09:48:27.027Z,1000.48
2019-05-20T09:49:26.989Z,1000.49
2019-05-20T09:50:27.015Z,1000.50
2019-05-20T09:51:26.979Z,1000.51
2019-05-20T09:52:26.984Z,1000.48
2019-05-20T09:53:26.985Z,1000.50
2019-05-20T09:54:27.081Z,1000.47
2019-05-20T09:55:26.929Z,1000.49
2019-05-20T09:56:26.905Z,1000.48
2019-05-20T09:57:26.899Z,1000.54
2019-05-20T09:58:26.852Z,1000.52
2019-05-20T09:59:41.993Z,1000.52
2019-05-20T10:00:27.838Z,1000.59
2019-05-20T10:01:26.822Z,1000.59
2019-05-20T10:02:36.271Z,1000.53
2019-05-20T10:03:27.793Z,1000.63
2019-05-20T10:04:26.815Z,1000.62
2019-05-20T10:05:26.777Z,1000.59
2019-05-20T10:06:26.762Z,1000.58
2019-05-20T10:07:26.823Z,1000.57
2019-05-20T10:08:37.444Z,1000.61
2019-05-20T10:09:27.759Z,1000.58
2019-05-20T10:10:26.753Z,1000.55
2019-05-20T10:11:26.707Z,1000.63
2019-05-20T10:12:44.655Z,1000.59
2019-05-20T10:13:27.689Z,1000.66
2019-05-20T10:14:26.878Z,1000.58
2019-05-20T10:15:26.662Z,1000.58
2019-05-20T10:16:26.662Z,1000.63
2019-05-20T10:17:26.728Z,1000.55
2019-05-20T10:18:36.680Z,1000.60
2019-05-20T10:19:27.650Z,1000.58
2019-05-20T10:20:26.713Z,1000.63
2019-05-20T10:21:26.611Z,1000.53
2019-05-20T10:22:26.592Z,1000.60
2019-05-20T10:23:26.609Z,1000.67
2019-05-20T10:24:26.568Z,1000.67
2019-05-20T10:25:26.595Z,1000.71
2019-05-20T10:26:26.599Z,1000.59
2019-05-20T10:27:26.543Z,1000.75
2019-05-20T10:28:26.530Z,1000.70
2019-05-20T10:29:26.523Z,1000.67
2019-05-20T10:30:26.558Z,1000.61
2019-05-20T10:31:26.493Z,1000.68
2019-05-20T10:32:26.480Z,1000.70
2019-05-20T10:33:26.465Z,1000.67
2019-05-20T10:34:26.465Z,1000.72
2019-05-20T10:35:26.479Z,1000.67
2019-05-20T10:36:26.445Z,1000.66
2019-05-20T10:37:26.433Z,1000.59
2019-05-20T10:38:26.625Z,1000.67
2019-05-20T10:39:26.404Z,1000.62
2019-05-20T10:40:26.431Z,1000.58
2019-05-20T10:41:29.394Z,1000.63
2019-05-20T10:42:26.393Z,1000.61
2019-05-20T10:43:26.396Z,1000.58
2019-05-20T10:44:26.388Z,1000.68
2019-05-20T10:45:26.339Z,1000.65
2019-05-20T10:46:26.452Z,1000.71
2019-05-20T10:47:26.345Z,1000.74
2019-05-20T10:48:26.317Z,1000.66
2019-05-20T10:49:26.308Z,1000.71
2019-05-20T10:50:26.284Z,1000.69
2019-05-20T10:51:26.277Z,1000.68
2019-05-20T10:52:26.289Z,1000.65
2019-05-20T10:53:28.406Z,1000.68
2019-05-20T10:54:26.241Z,1000.69
2019-05-20T10:55:26.288Z,1000.64
2019-05-20T10:56:26.221Z,1000.70
2019-05-20T10:57:26.213Z,1000.73
2019-05-20T10:58:26.205Z,1000.76
2019-05-20T10:59:27.760Z,1000.73
2019-05-20T11:00:26.195Z,1000.72
2019-05-20T11:01:26.163Z,1000.81
2019-05-20T11:02:30.982Z,1000.81
2019-05-20T11:03:27.145Z,1000.78
2019-05-20T11:04:26.153Z,1000.75
2019-05-20T11:05:26.137Z,1000.79
2019-05-20T11:06:26.113Z,1000.69
2019-05-20T11:07:26.105Z,1000.78
2019-05-20T11:08:26.092Z,1000.71
2019-05-20T11:09:26.085Z,1000.74
2019-05-20T11:10:26.115Z,1000.82
2019-05-20T11:11:26.078Z,1000.75
2019-05-20T11:12:26.065Z,1000.76
2019-05-20T11:13:26.080Z,1000.84
2019-05-20T11:14:26.025Z,1000.73
2019-05-20T11:15:26.058Z,1000.74
2019-05-20T11:16:26.017Z,1000.74
2019-05-20T11:17:25.991Z,1000.82
2019-05-20T11:18:26.002Z,1000.80
2019-05-20T11:19:25.976Z,1000.86
2019-05-20T11:20:26.051Z,1000.80
2019-05-20T11:21:25.944Z,1000.80
2019-05-20T11:22:25.957Z,1000.86
2019-05-20T11:23:25.933Z,1000.87
2019-05-20T11:24:25.957Z,1000.84
2019-05-20T11:25:25.937Z,1000.84
2019-05-20T11:26:26.072Z,1000.87
2019-05-20T11:27:25.883Z,1000.87
2019-05-20T11:28:25.880Z,1000.84
2019-05-20T11:29:25.893Z,1000.86
2019-05-20T11:30:25.856Z,1000.90
2019-05-20T11:31:25.868Z,1000.94
2019-05-20T11:32:25.831Z,1000.84
2019-05-20T11:33:25.886Z,1000.93
2019-05-20T11:34:25.804Z,1000.93
2019-05-20T11:35:25.809Z,1000.94
2019-05-20T11:36:25.844Z,1000.89
2019-05-20T11:37:25.826Z,1000.90
2019-05-20T11:38:25.775Z,1000.93
2019-05-20T11:39:33.357Z,1000.90
2019-05-20T11:40:26.748Z,1000.93
2019-05-20T11:41:52.163Z,1000.86
2019-05-20T11:42:26.721Z,1000.85
2019-05-20T11:43:25.744Z,1000.85
2019-05-20T11:44:25.701Z,1000.83
2019-05-20T11:45:25.698Z,1000.85
2019-05-20T11:46:25.771Z,1000.89
2019-05-20T11:47:25.668Z,1000.93
2019-05-20T11:48:25.668Z,1000.88
2019-05-20T11:49:28.947Z,1000.91
2019-05-20T11:50:25.634Z,1000.89
2019-05-20T11:51:25.650Z,1000.92
2019-05-20T11:52:25.613Z,1000.91
2019-05-20T11:53:25.652Z,1000.89
2019-05-20T11:54:25.598Z,1000.90
2019-05-20T11:55:25.624Z,1000.93
2019-05-20T11:56:33.213Z,1000.85
2019-05-20T11:57:25.650Z,1000.92
2019-05-20T11:58:25.679Z,1000.94
2019-05-20T11:59:25.585Z,1000.93
2019-05-20T12:00:25.555Z,1000.97
2019-05-20T12:01:25.552Z,1000.93
2019-05-20T12:02:25.518Z,1000.95
2019-05-20T12:03:25.492Z,1000.88
2019-05-20T12:04:25.595Z,1000.97
2019-05-20T12:05:25.491Z,1000.88
2019-05-20T12:06:25.504Z,1001.02
2019-05-20T12:07:25.452Z,1000.99
2019-05-20T12:08:25.473Z,1000.92
2019-05-20T12:09:25.427Z,1000.95
2019-05-20T12:10:25.420Z,1000.95
2019-05-20T12:11:25.439Z,1000.90
2019-05-20T12:12:25.473Z,1000.93
2019-05-20T12:13:25.390Z,1000.98
2019-05-20T12:14:25.373Z,1000.98
2019-05-20T12:15:25.364Z,1001.05
2019-05-20T12:16:25.388Z,1001.01
2019-05-20T12:17:25.451Z,1001.00
2019-05-20T12:18:25.339Z,1000.98
2019-05-20T12:19:25.333Z,1000.95
2019-05-20T12:20:25.313Z,1000.97
2019-05-20T12:21:25.310Z,1000.94
2019-05-20T12:22:25.380Z,1000.99
2019-05-20T12:23:25.340Z,1000.96
2019-05-20T12:24:25.333Z,1000.96
2019-05-20T12:25:25.278Z,1001.04
2019-05-20T12:26:25.262Z,1001.02
2019-05-20T12:27:25.282Z,1001.07
2019-05-20T12:28:25.239Z,1001.02
2019-05-20T12:29:25.226Z,1000.99
2019-05-20T12:30:25.204Z,1001.03
2019-05-20T12:31:25.226Z,1001.03
2019-05-20T12:32:25.265Z,1001.10
2019-05-20T12:33:25.169Z,1001.07
2019-05-20T12:34:25.455Z,1001.11
2019-05-20T12:35:25.240Z,1001.12
2019-05-20T12:36:25.141Z,1001.05
2019-05-20T12:37:25.168Z,1001.04
2019-05-20T12:38:25.145Z,1001.02
2019-05-20T12:39:25.160Z,1001.08
2019-05-20T12:40:25.096Z,1001.05
2019-05-20T12:41:25.195Z,1001.05
2019-05-20T12:42:25.079Z,1001.04
2019-05-20T12:43:25.116Z,1001.07
2019-05-20T12:44:25.055Z,1001.06
2019-05-20T12:45:25.044Z,1001.08
2019-05-20T12:46:25.028Z,1001.08
2019-05-20T12:47:25.021Z,1001.10
2019-05-20T12:48:25.035Z,1001.07
2019-05-20T12:49:25.174Z,1001.05
2019-05-20T12:50:25.074Z,1001.03
2019-05-20T12:51:24.973Z,1001.06
2019-05-20T12:52:24.975Z,1000.99
2019-05-20T12:53:24.977Z,1001.04
2019-05-20T12:54:24.946Z,1001.04
2019-05-20T12:55:24.938Z,1001.02
2019-05-20T12:56:24.943Z,1000.98
2019-05-20T12:57:24.928Z,1001.05
2019-05-20T12:58:24.962Z,1001.07
2019-05-20T12:59:24.889Z,1001.05
2019-05-20T13:00:24.890Z,1001.04
2019-05-20T13:01:24.869Z,1000.98
2019-05-20T13:02:24.889Z,1000.98
2019-05-20T13:03:24.879Z,1001.02
2019-05-20T13:04:24.830Z,1001.03
2019-05-20T13:05:24.847Z,1001.02
2019-05-20T13:06:24.832Z,1000.98
2019-05-20T13:07:24.810Z,1001.01
2019-05-20T13:08:24.859Z,1000.96
2019-05-20T13:09:24.788Z,1000.94
2019-05-20T13:10:29.823Z,1000.92
2019-05-20T13:11:25.764Z,1000.95
2019-05-20T13:12:24.808Z,1000.96
2019-05-20T13:13:24.740Z,1000.95
2019-05-20T13:14:24.734Z,1000.95
2019-05-20T13:15:24.760Z,1000.86
2019-05-20T13:16:24.719Z,1000.88
2019-05-20T13:17:24.728Z,1000.86
2019-05-20T13:18:24.693Z,1000.85
2019-05-20T13:19:24.744Z,1000.87
2019-05-20T13:20:24.688Z,1000.90
2019-05-20T13:21:35.351Z,1000.88
2019-05-20T13:22:24.672Z,1000.85
2019-05-20T13:23:24.984Z,1000.78
2019-05-20T13:24:24.667Z,1000.85
2019-05-20T13:25:24.760Z,1000.89
2019-05-20T13:26:24.620Z,1000.88
2019-05-20T13:27:25.301Z,1000.74
2019-05-20T13:28:24.604Z,1000.78
2019-05-20T13:29:24.574Z,1000.78
2019-05-20T13:30:24.555Z,1000.85
2019-05-20T13:31:24.622Z,1000.80
2019-05-20T13:32:24.544Z,1000.85
2019-05-20T13:33:24.539Z,1000.79
2019-05-20T13:34:24.517Z,1000.92
2019-05-20T13:35:24.511Z,1000.83
2019-05-20T13:36:24.590Z,1000.83
2019-05-20T13:37:31.916Z,1000.84
2019-05-20T13:38:24.528Z,1000.83
2019-05-20T13:39:24.496Z,1000.83
2019-05-20T13:40:24.454Z,1000.81
2019-05-20T13:41:24.501Z,1000.82
2019-05-20T13:42:24.513Z,1000.85
2019-05-20T13:43:25.488Z,1000.81
2019-05-20T13:44:24.536Z,1000.88
2019-05-20T13:45:24.398Z,1000.85
2019-05-20T13:46:24.388Z,1000.90
2019-05-20T13:47:24.401Z,1000.89
2019-05-20T13:48:24.443Z,1000.90
2019-05-20T13:49:24.344Z,1000.90
2019-05-20T13:50:24.421Z,1000.91
2019-05-20T13:51:24.458Z,1000.87
2019-05-20T13:52:24.315Z,1000.84
2019-05-20T13:53:24.340Z,1000.88
2019-05-20T13:54:24.453Z,1000.88
2019-05-20T13:55:24.329Z,1000.90
2019-05-20T13:56:24.268Z,1000.90
2019-05-20T13:57:24.270Z,1000.85
2019-05-20T13:58:24.264Z,1000.91
2019-05-20T13:59:24.458Z,1000.87
2019-05-20T14:00:24.381Z,1000.83
2019-05-20T14:01:24.251Z,1000.90
2019-05-20T14:02:24.216Z,1000.87
2019-05-20T14:03:24.203Z,1000.91
2019-05-20T14:04:24.226Z,1000.96
2019-05-20T14:05:24.202Z,1000.86
2019-05-20T14:06:24.163Z,1000.79
2019-05-20T14:07:24.168Z,1000.81
2019-05-20T14:08:24.186Z,1000.75
2019-05-20T14:09:24.250Z,1000.86
2019-05-20T14:10:24.151Z,1000.76
2019-05-20T14:11:34.183Z,1000.86
2019-05-20T14:12:25.236Z,1000.85
2019-05-20T14:13:24.088Z,1000.78
2019-05-20T14:14:24.122Z,1000.82
2019-05-20T14:15:24.071Z,1000.92
2019-05-20T14:16:24.086Z,1000.94
2019-05-20T14:17:24.076Z,1000.89
2019-05-20T14:18:24.033Z,1000.90
2019-05-20T14:19:24.082Z,1000.86
2019-05-20T14:20:24.026Z,1000.91
2019-05-20T14:21:24.412Z,1000.84
2019-05-20T14:22:24.010Z,1000.77
2019-05-20T14:23:23.990Z,1000.75
2019-05-20T14:24:24.963Z,1000.84
2019-05-20T14:25:23.979Z,1000.82
2019-05-20T14:26:23.973Z,1000.84
2019-05-20T14:27:24.000Z,1000.85
2019-05-20T14:28:23.928Z,1000.88
2019-05-20T14:29:24.339Z,1000.87
2019-05-20T14:30:23.916Z,1000.90
2019-05-20T14:31:23.922Z,1000.95
2019-05-20T14:32:24.088Z,1000.84
2019-05-20T14:33:23.877Z,1000.85
2019-05-20T14:34:23.872Z,1000.89
2019-05-20T14:35:23.878Z,1000.90
2019-05-20T14:36:38.816Z,1000.91
2019-05-20T14:37:25.882Z,1000.98
2019-05-20T14:38:23.946Z,1000.96
2019-05-20T14:39:23.861Z,1000.92
2019-05-20T14:40:23.859Z,1000.94
2019-05-20T14:41:25.348Z,1000.87
2019-05-20T14:42:25.659Z,1000.93
2019-05-20T14:43:23.805Z,1000.86
2019-05-20T14:44:23.778Z,1000.96
2019-05-20T14:45:23.744Z,1000.90
2019-05-20T14:46:23.839Z,1000.90
2019-05-20T14:47:23.741Z,1000.94
2019-05-20T14:48:23.713Z,1001.01
2019-05-20T14:49:23.704Z,1000.92
2019-05-20T14:50:23.692Z,1000.93
2019-05-20T14:51:23.731Z,1000.94
2019-05-20T14:52:23.675Z,1000.91
2019-05-20T14:53:23.686Z,1000.90
2019-05-20T14:54:23.682Z,1000.96
2019-05-20T14:55:23.660Z,1000.94
2019-05-20T14:56:23.624Z,1000.97
2019-05-20T14:57:23.632Z,1001.01
2019-05-20T14:58:24.347Z,1000.98
2019-05-20T14:59:23.625Z,1001.01
2019-05-20T15:00:23.597Z,1001.02
2019-05-20T15:01:23.609Z,1000.99
2019-05-20T15:02:23.557Z,1000.90
2019-05-20T15:03:23.677Z,1000.94
2019-05-20T15:04:23.565Z,1000.94
2019-05-20T15:05:23.585Z,1000.95
2019-05-20T15:06:23.592Z,1000.99
2019-05-20T15:07:30.269Z,1001.02
2019-05-20T15:08:24.518Z,1000.96
2019-05-20T15:09:23.488Z,1000.99
2019-05-20T15:10:23.546Z,1001.02
2019-05-20T15:11:37.118Z,1001.07
2019-05-20T15:12:24.572Z,1000.97
2019-05-20T15:13:23.449Z,1001.03
2019-05-20T15:14:23.450Z,1000.95
2019-05-20T15:15:23.524Z,1000.97
2019-05-20T15:16:23.557Z,1000.96
2019-05-20T15:17:23.562Z,1001.00
2019-05-20T15:18:23.398Z,1001.03
2019-05-20T15:19:24.687Z,1000.99
2019-05-20T15:20:25.285Z,1000.93
2019-05-20T15:21:28.518Z,1001.03
2019-05-20T15:22:24.349Z,1001.04
2019-05-20T15:23:23.581Z,1001.05
2019-05-20T15:24:24.935Z,1000.99
2019-05-20T15:25:23.555Z,1001.07
2019-05-20T15:26:23.348Z,1001.01
2019-05-20T15:27:23.541Z,1000.99
2019-05-20T15:28:23.915Z,1001.07
2019-05-20T15:29:28.177Z,1001.05
2019-05-20T15:30:24.274Z,1001.03
2019-05-20T15:31:23.311Z,1001.08
2019-05-20T15:32:23.351Z,1001.04
2019-05-20T15:33:23.303Z,1001.09
2019-05-20T15:34:23.293Z,1001.11
2019-05-20T15:35:23.264Z,1001.05
2019-05-20T15:36:23.322Z,1001.02
2019-05-20T15:37:23.250Z,1001.07
2019-05-20T15:38:23.217Z,1001.16
2019-05-20T15:39:23.193Z,1001.02
2019-05-20T15:40:24.490Z,1001.04
2019-05-20T15:41:23.201Z,1001.06
2019-05-20T15:42:23.138Z,1000.98
2019-05-20T15:43:23.234Z,1001.02
2019-05-20T15:44:23.118Z,1001.02
2019-05-20T15:45:23.169Z,1001.09
2019-05-20T15:46:23.119Z,1001.05
2019-05-20T15:47:23.267Z,1001.01
2019-05-20T15:48:23.089Z,1001.03
2019-05-20T15:49:23.095Z,1001.00
2019-05-20T15:50:23.038Z,1001.00
2019-05-20T15:51:23.039Z,1000.98
2019-05-20T15:52:23.077Z,1001.02
2019-05-20T15:53:23.041Z,1000.93
2019-05-20T15:54:23.033Z,1000.97
2019-05-20T15:55:22.988Z,1000.94
2019-05-20T15:56:22.972Z,1000.91
2019-05-20T15:57:22.978Z,1000.97
2019-05-20T15:58:23.957Z,1000.93
2019-05-20T15:59:23.142Z,1000.91
2019-05-20T16:00:23.082Z,1001.00
2019-05-20T16:01:30.684Z,1001.00
2019-05-20T16:03:53.039Z,1000.95
2019-05-20T16:06:16.833Z,1000.93
2019-05-20T16:07:10.692Z,1000.91
2019-05-20T16:08:10.629Z,1000.91
2019-05-20T16:09:10.661Z,1000.95
2019-05-20T16:10:10.601Z,1000.91
2019-05-20T16:11:10.871Z,1000.97
2019-05-20T16:12:10.580Z,1001.01
2019-05-20T16:13:10.578Z,1001.04
2019-05-20T16:14:10.586Z,1000.96
2019-05-20T16:15:10.552Z,1001.04
2019-05-20T16:16:12.915Z,1001.00
2019-05-20T16:17:19.366Z,1001.09
2019-05-20T16:18:10.680Z,1000.98
2019-05-20T16:19:10.691Z,1001.00
2019-05-20T16:20:18.458Z,1000.95
2019-05-20T16:21:10.570Z,1001.00
2019-05-20T16:22:11.145Z,1001.08
2019-05-20T16:23:10.813Z,1001.04
2019-05-20T16:24:11.138Z,1001.02
2019-05-20T16:25:10.480Z,1000.96
2019-05-20T16:26:10.699Z,1001.05
2019-05-20T16:27:11.681Z,1001.08
2019-05-20T16:28:10.417Z,1001.05
2019-05-20T16:29:10.441Z,1001.05
2019-05-20T16:30:10.387Z,1001.02
2019-05-20T16:31:10.372Z,1001.11
2019-05-20T16:32:10.409Z,1001.03
2019-05-20T16:33:10.376Z,1001.02
2019-05-20T16:34:10.388Z,1001.09
2019-05-20T16:35:11.320Z,1001.03
2019-05-20T16:36:10.346Z,1001.01
2019-05-20T16:37:10.312Z,1001.00
2019-05-20T16:38:10.647Z,1000.88
2019-05-20T16:39:10.459Z,1000.96
2019-05-20T16:40:10.635Z,1000.95
2019-05-20T16:41:10.361Z,1000.86
2019-05-20T16:42:10.265Z,1000.95
2019-05-20T16:43:10.298Z,1000.93
2019-05-20T16:44:10.243Z,1000.92
2019-05-20T16:45:11.896Z,1000.97
2019-05-20T16:46:10.250Z,1000.92
2019-05-20T16:47:10.246Z,1000.87
2019-05-20T16:48:10.200Z,1000.94
2019-05-20T16:49:10.244Z,1000.91
2019-05-20T16:50:23.317Z,1000.87
2019-05-20T16:51:10.397Z,1000.88
2019-05-20T16:52:17.968Z,1000.95
2019-05-20T16:53:11.034Z,1000.91
2019-05-20T16:54:10.338Z,1000.88
2019-05-20T16:55:10.656Z,1000.90
2019-05-20T16:56:19.342Z,1000.93
2019-05-20T16:57:10.820Z,1000.87
2019-05-20T16:58:10.195Z,1000.91
2019-05-20T16:59:11.771Z,1000.87
2019-05-20T17:01:45.549Z,1000.85
2019-05-20T17:03:43.795Z,1000.88
2019-05-20T17:04:43.655Z,1000.95
2019-05-20T17:05:43.823Z,1000.91
2019-05-20T17:06:43.596Z,1000.98
2019-05-20T17:07:51.234Z,1000.95
2019-05-20T17:08:43.564Z,1000.97
2019-05-20T17:09:51.163Z,1000.96
2019-05-20T17:10:43.578Z,1001.02
2019-05-20T17:11:43.629Z,1001.05
2019-05-20T17:12:43.498Z,1000.97
2019-05-20T17:13:43.569Z,1001.04
2019-05-20T17:14:43.479Z,1001.08
2019-05-20T17:15:43.433Z,1001.09
2019-05-20T17:16:43.513Z,1001.12
2019-05-20T17:17:43.444Z,1001.09
2019-05-20T17:18:51.099Z,1001.17
2019-05-20T17:19:43.447Z,1001.17
2019-05-20T17:20:46.007Z,1001.22
2019-05-20T17:21:43.429Z,1001.20
2019-05-20T17:22:43.377Z,1001.19
2019-05-20T17:23:43.365Z,1001.25
2019-05-20T17:24:43.378Z,1001.24
2019-05-20T17:25:43.365Z,1001.28
2019-05-20T17:26:44.396Z,1001.37
2019-05-20T17:27:43.310Z,1001.27
2019-05-20T17:28:43.366Z,1001.27
2019-05-20T17:29:43.314Z,1001.23
2019-05-20T17:30:45.752Z,1001.24
2019-05-20T17:31:43.305Z,1001.19
2019-05-20T17:32:43.299Z,1001.22
2019-05-20T17:33:43.452Z,1001.27
2019-05-20T17:34:43.343Z,1001.14
2019-05-20T17:35:43.348Z,1001.14
2019-05-20T17:36:43.263Z,1001.13
2019-05-20T17:37:43.338Z,1001.20
2019-05-20T17:38:43.218Z,1001.10
2019-05-20T17:39:43.256Z,1001.06
2019-05-20T17:40:43.199Z,1001.18
2019-05-20T17:41:43.242Z,1001.20
2019-05-20T17:42:43.178Z,1001.16
2019-05-20T17:43:43.204Z,1001.26
2019-05-20T17:44:43.163Z,1001.21
2019-05-20T17:45:43.186Z,1001.21
2019-05-20T17:46:43.110Z,1001.27
2019-05-20T17:47:43.228Z,1001.33
2019-05-20T17:48:43.379Z,1001.29
2019-05-20T17:49:43.187Z,1001.26
2019-05-20T17:50:46.288Z,1001.29
2019-05-20T17:51:43.489Z,1001.31
2019-05-20T17:52:43.092Z,1001.29
2019-05-20T17:53:43.049Z,1001.35
2019-05-20T17:54:43.021Z,1001.29
2019-05-20T17:55:43.833Z,1001.39
2019-05-20T17:56:44.796Z,1001.36
2019-05-20T17:57:43.070Z,1001.35
2019-05-20T17:58:42.996Z,1001.36
2019-05-20T17:59:42.966Z,1001.33
2019-05-20T18:00:42.967Z,1001.38
2019-05-20T18:01:42.993Z,1001.38
2019-05-20T18:02:43.013Z,1001.42
2019-05-20T18:03:42.937Z,1001.37
2019-05-20T18:04:42.941Z,1001.41
2019-05-20T18:05:42.922Z,1001.40
2019-05-20T18:06:42.948Z,1001.40
2019-05-20T18:07:42.910Z,1001.38
2019-05-20T18:08:42.888Z,1001.42
2019-05-20T18:09:42.869Z,1001.40
2019-05-20T18:10:42.961Z,1001.45
2019-05-20T18:11:42.890Z,1001.44
2019-05-20T18:12:42.988Z,1001.47
2019-05-20T18:13:42.862Z,1001.55